sensor_id;sensor_type;location;lat;lon;timestamp;temperature;humidity
70244;DHT22;57634;51.136;17.024;2023-09-18T00:00:34;19.40;74.60
70244;DHT22;57634;51.136;17.024;2023-09-18T00:03:41;19.30;75.10
70244;DHT22;57634;51.136;17.024;2023-09-18T00:06:44;19.30;75.30
70244;DHT22;57634;51.136;17.024;2023-09-18T00:09:46;19.20;75.50
70244;DHT22;57634;51.136;17.024;2023-09-18T00:12:47;19.20;75.80
70244;DHT22;57634;51.136;17.024;2023-09-18T00:15:49;19.10;75.90
70244;DHT22;57634;51.136;17.024;2023-09-18T00:18:53;19.10;76.10
70244;DHT22;57634;51.136;17.024;2023-09-18T00:21:55;19.00;76.30
70244;DHT22;57634;51.136;17.024;2023-09-18T00:25:01;19.00;76.40
70244;DHT22;57634;51.136;17.024;2023-09-18T00:28:30;18.90;76.60
70244;DHT22;57634;51.136;17.024;2023-09-18T00:31:31;18.90;77.00
70244;DHT22;57634;51.136;17.024;2023-09-18T00:34:32;18.90;77.30
70244;DHT22;57634;51.136;17.024;2023-09-18T00:37:34;18.80;77.50
70244;DHT22;57634;51.136;17.024;2023-09-18T00:40:37;18.70;77.70
70244;DHT22;57634;51.136;17.024;2023-09-18T00:43:39;18.70;77.90
70244;DHT22;57634;51.136;17.024;2023-09-18T00:46:40;18.60;78.20
70244;DHT22;57634;51.136;17.024;2023-09-18T00:49:44;18.60;78.50
70244;DHT22;57634;51.136;17.024;2023-09-18T00:52:48;18.50;78.70
70244;DHT22;57634;51.136;17.024;2023-09-18T00:55:53;18.50;78.90
70244;DHT22;57634;51.136;17.024;2023-09-18T00:58:57;18.40;79.00
70244;DHT22;57634;51.136;17.024;2023-09-18T01:02:26;18.30;79.20
70244;DHT22;57634;51.136;17.024;2023-09-18T01:05:28;18.20;79.70
70244;DHT22;57634;51.136;17.024;2023-09-18T01:08:30;18.20;79.90
70244;DHT22;57634;51.136;17.024;2023-09-18T01:11:43;18.20;80.30
70244;DHT22;57634;51.136;17.024;2023-09-18T01:14:57;18.10;80.50
70244;DHT22;57634;51.136;17.024;2023-09-18T01:17:59;18.10;80.70
70244;DHT22;57634;51.136;17.024;2023-09-18T01:21:01;18.00;80.90
70244;DHT22;57634;51.136;17.024;2023-09-18T01:24:02;17.90;81.10
70244;DHT22;57634;51.136;17.024;2023-09-18T01:27:32;17.90;81.30
70244;DHT22;57634;51.136;17.024;2023-09-18T01:30:33;17.90;81.60
70244;DHT22;57634;51.136;17.024;2023-09-18T01:33:37;17.80;81.80
70244;DHT22;57634;51.136;17.024;2023-09-18T01:36:39;17.80;82.00
70244;DHT22;57634;51.136;17.024;2023-09-18T01:39:41;17.80;82.20
70244;DHT22;57634;51.136;17.024;2023-09-18T01:42:46;17.70;82.20
70244;DHT22;57634;51.136;17.024;2023-09-18T01:45:47;17.70;82.40
70244;DHT22;57634;51.136;17.024;2023-09-18T01:48:49;17.70;82.60
70244;DHT22;57634;51.136;17.024;2023-09-18T01:51:51;17.60;82.60
70244;DHT22;57634;51.136;17.024;2023-09-18T01:54:52;17.60;82.80
70244;DHT22;57634;51.136;17.024;2023-09-18T01:57:55;17.60;83.00
70244;DHT22;57634;51.136;17.024;2023-09-18T02:01:00;17.60;83.00
70244;DHT22;57634;51.136;17.024;2023-09-18T02:04:28;17.60;83.00
70244;DHT22;57634;51.136;17.024;2023-09-18T02:07:29;17.60;83.10
70244;DHT22;57634;51.136;17.024;2023-09-18T02:10:32;17.60;83.20
70244;DHT22;57634;51.136;17.024;2023-09-18T02:13:33;17.50;83.20
70244;DHT22;57634;51.136;17.024;2023-09-18T02:16:36;17.50;83.40
70244;DHT22;57634;51.136;17.024;2023-09-18T02:19:38;17.50;83.40
70244;DHT22;57634;51.136;17.024;2023-09-18T02:22:39;17.50;83.50
70244;DHT22;57634;51.136;17.024;2023-09-18T02:29:02;17.40;83.50
70244;DHT22;57634;51.136;17.024;2023-09-18T02:32:30;17.40;83.50
70244;DHT22;57634;51.136;17.024;2023-09-18T02:35:33;17.40;83.60
70244;DHT22;57634;51.136;17.024;2023-09-18T02:38:35;17.40;83.70
70244;DHT22;57634;51.136;17.024;2023-09-18T02:41:36;17.40;83.70
70244;DHT22;57634;51.136;17.024;2023-09-18T02:44:38;17.40;83.80
70244;DHT22;57634;51.136;17.024;2023-09-18T02:47:39;17.40;83.80
70244;DHT22;57634;51.136;17.024;2023-09-18T02:50:42;17.40;83.80
70244;DHT22;57634;51.136;17.024;2023-09-18T02:53:44;17.40;83.80
70244;DHT22;57634;51.136;17.024;2023-09-18T02:56:46;17.30;83.80
70244;DHT22;57634;51.136;17.024;2023-09-18T02:59:49;17.30;83.90
70244;DHT22;57634;51.136;17.024;2023-09-18T03:02:50;17.30;83.90
70244;DHT22;57634;51.136;17.024;2023-09-18T03:05:52;17.30;83.90
70244;DHT22;57634;51.136;17.024;2023-09-18T03:08:53;17.30;83.90
70244;DHT22;57634;51.136;17.024;2023-09-18T03:12:21;17.30;83.90
70244;DHT22;57634;51.136;17.024;2023-09-18T03:15:23;17.30;84.00
70244;DHT22;57634;51.136;17.024;2023-09-18T03:18:24;17.30;84.10
70244;DHT22;57634;51.136;17.024;2023-09-18T03:21:26;17.30;84.10
70244;DHT22;57634;51.136;17.024;2023-09-18T03:24:27;17.30;84.20
70244;DHT22;57634;51.136;17.024;2023-09-18T03:27:29;17.30;84.30
70244;DHT22;57634;51.136;17.024;2023-09-18T03:30:32;17.30;84.20
70244;DHT22;57634;51.136;17.024;2023-09-18T03:33:34;17.30;84.10
70244;DHT22;57634;51.136;17.024;2023-09-18T03:36:36;17.30;84.10
70244;DHT22;57634;51.136;17.024;2023-09-18T03:39:39;17.30;84.20
70244;DHT22;57634;51.136;17.024;2023-09-18T03:42:41;17.30;84.30
70244;DHT22;57634;51.136;17.024;2023-09-18T03:45:42;17.20;84.30
70244;DHT22;57634;51.136;17.024;2023-09-18T03:48:44;17.20;84.40
70244;DHT22;57634;51.136;17.024;2023-09-18T03:52:12;17.20;84.60
70244;DHT22;57634;51.136;17.024;2023-09-18T03:55:14;17.20;84.70
70244;DHT22;57634;51.136;17.024;2023-09-18T03:58:15;17.20;84.90
70244;DHT22;57634;51.136;17.024;2023-09-18T04:01:17;17.20;84.90
70244;DHT22;57634;51.136;17.024;2023-09-18T04:04:18;17.20;85.10
70244;DHT22;57634;51.136;17.024;2023-09-18T04:07:20;17.20;85.10
70244;DHT22;57634;51.136;17.024;2023-09-18T04:10:21;17.20;85.10
70244;DHT22;57634;51.136;17.024;2023-09-18T04:13:24;17.20;85.10
70244;DHT22;57634;51.136;17.024;2023-09-18T04:16:26;17.20;85.20
70244;DHT22;57634;51.136;17.024;2023-09-18T04:19:38;17.20;85.20
70244;DHT22;57634;51.136;17.024;2023-09-18T04:22:44;17.20;85.20
70244;DHT22;57634;51.136;17.024;2023-09-18T04:26:15;17.20;85.20
70244;DHT22;57634;51.136;17.024;2023-09-18T04:29:18;17.20;85.30
70244;DHT22;57634;51.136;17.024;2023-09-18T04:32:20;17.20;85.30
70244;DHT22;57634;51.136;17.024;2023-09-18T04:35:21;17.30;85.30
70244;DHT22;57634;51.136;17.024;2023-09-18T04:38:26;17.30;85.20
70244;DHT22;57634;51.136;17.024;2023-09-18T04:41:27;17.30;85.10
70244;DHT22;57634;51.136;17.024;2023-09-18T04:44:29;17.30;85.20
70244;DHT22;57634;51.136;17.024;2023-09-18T04:47:30;17.40;85.50
70244;DHT22;57634;51.136;17.024;2023-09-18T04:50:32;17.60;85.50
70244;DHT22;57634;51.136;17.024;2023-09-18T04:53:35;17.90;84.80
70244;DHT22;57634;51.136;17.024;2023-09-18T04:56:36;18.20;84.00
70244;DHT22;57634;51.136;17.024;2023-09-18T04:59:39;18.60;82.80
70244;DHT22;57634;51.136;17.024;2023-09-18T05:02:41;19.10;81.60
70244;DHT22;57634;51.136;17.024;2023-09-18T05:06:07;19.50;79.90
70244;DHT22;57634;51.136;17.024;2023-09-18T05:09:09;20.00;77.70
70244;DHT22;57634;51.136;17.024;2023-09-18T05:12:10;20.30;76.20
70244;DHT22;57634;51.136;17.024;2023-09-18T05:15:17;20.50;74.80
70244;DHT22;57634;51.136;17.024;2023-09-18T05:18:18;20.80;73.80
70244;DHT22;57634;51.136;17.024;2023-09-18T05:21:19;21.10;72.50
70244;DHT22;57634;51.136;17.024;2023-09-18T05:24:27;21.20;71.10
70244;DHT22;57634;51.136;17.024;2023-09-18T05:27:28;21.30;70.60
70244;DHT22;57634;51.136;17.024;2023-09-18T05:30:31;21.40;70.00
70244;DHT22;57634;51.136;17.024;2023-09-18T05:33:35;21.50;69.70
70244;DHT22;57634;51.136;17.024;2023-09-18T05:36:37;21.60;69.30
70244;DHT22;57634;51.136;17.024;2023-09-18T05:40:06;21.70;68.60
70244;DHT22;57634;51.136;17.024;2023-09-18T05:43:11;21.90;68.10
70244;DHT22;57634;51.136;17.024;2023-09-18T05:46:12;22.10;67.40
70244;DHT22;57634;51.136;17.024;2023-09-18T05:49:14;22.30;66.90
70244;DHT22;57634;51.136;17.024;2023-09-18T05:52:15;22.50;66.20
70244;DHT22;57634;51.136;17.024;2023-09-18T05:55:17;22.80;65.40
70244;DHT22;57634;51.136;17.024;2023-09-18T05:58:18;23.10;64.30
70244;DHT22;57634;51.136;17.024;2023-09-18T06:01:27;23.40;63.40
70244;DHT22;57634;51.136;17.024;2023-09-18T06:04:29;23.60;62.80
70244;DHT22;57634;51.136;17.024;2023-09-18T06:07:31;23.80;62.40
70244;DHT22;57634;51.136;17.024;2023-09-18T06:10:33;24.00;61.40
70244;DHT22;57634;51.136;17.024;2023-09-18T06:14:01;24.30;60.50
70244;DHT22;57634;51.136;17.024;2023-09-18T06:17:02;24.50;59.60
70244;DHT22;57634;51.136;17.024;2023-09-18T06:20:04;24.80;59.00
70244;DHT22;57634;51.136;17.024;2023-09-18T06:23:05;25.10;57.50
70244;DHT22;57634;51.136;17.024;2023-09-18T06:26:07;25.60;57.00
70244;DHT22;57634;51.136;17.024;2023-09-18T06:29:08;26.10;55.50
70244;DHT22;57634;51.136;17.024;2023-09-18T06:32:10;26.50;54.60
70244;DHT22;57634;51.136;17.024;2023-09-18T06:35:11;27.20;53.70
70244;DHT22;57634;51.136;17.024;2023-09-18T06:38:13;27.80;51.80
70244;DHT22;57634;51.136;17.024;2023-09-18T06:41:16;28.30;51.00
70244;DHT22;57634;51.136;17.024;2023-09-18T06:44:17;28.60;49.90
70244;DHT22;57634;51.136;17.024;2023-09-18T06:47:18;29.00;49.10
70244;DHT22;57634;51.136;17.024;2023-09-18T06:50:20;29.40;48.30
70244;DHT22;57634;51.136;17.024;2023-09-18T06:53:21;29.50;47.80
70244;DHT22;57634;51.136;17.024;2023-09-18T06:56:48;29.60;47.30
70244;DHT22;57634;51.136;17.024;2023-09-18T06:59:50;29.80;46.50
70244;DHT22;57634;51.136;17.024;2023-09-18T07:02:52;30.00;46.20
70244;DHT22;57634;51.136;17.024;2023-09-18T07:05:53;30.30;45.80
70244;DHT22;57634;51.136;17.024;2023-09-18T07:08:55;30.70;45.10
70244;DHT22;57634;51.136;17.024;2023-09-18T07:11:57;30.90;44.20
70244;DHT22;57634;51.136;17.024;2023-09-18T07:15:03;31.20;43.90
70244;DHT22;57634;51.136;17.024;2023-09-18T07:18:07;31.60;42.80
70244;DHT22;57634;51.136;17.024;2023-09-18T07:21:14;31.60;42.80
70244;DHT22;57634;51.136;17.024;2023-09-18T07:24:15;31.50;42.10
70244;DHT22;57634;51.136;17.024;2023-09-18T07:27:47;31.20;42.10
70244;DHT22;57634;51.136;17.024;2023-09-18T07:30:48;31.00;42.50
70244;DHT22;57634;51.136;17.024;2023-09-18T07:33:50;30.80;42.20
70244;DHT22;57634;51.136;17.024;2023-09-18T07:36:53;30.50;42.60
70244;DHT22;57634;51.136;17.024;2023-09-18T07:39:58;30.20;43.00
70244;DHT22;57634;51.136;17.024;2023-09-18T07:42:59;29.90;43.80
70244;DHT22;57634;51.136;17.024;2023-09-18T07:46:01;30.00;44.20
70244;DHT22;57634;51.136;17.024;2023-09-18T07:49:03;30.00;43.80
70244;DHT22;57634;51.136;17.024;2023-09-18T07:52:05;30.00;44.10
70244;DHT22;57634;51.136;17.024;2023-09-18T07:55:07;30.00;43.80
70244;DHT22;57634;51.136;17.024;2023-09-18T07:58:12;29.80;44.00
70244;DHT22;57634;51.136;17.024;2023-09-18T08:01:43;29.70;44.50
70244;DHT22;57634;51.136;17.024;2023-09-18T08:04:44;29.50;44.60
70244;DHT22;57634;51.136;17.024;2023-09-18T08:07:46;29.50;45.10
70244;DHT22;57634;51.136;17.024;2023-09-18T08:10:50;29.60;45.00
70244;DHT22;57634;51.136;17.024;2023-09-18T08:13:52;29.70;44.60
70244;DHT22;57634;51.136;17.024;2023-09-18T08:17:00;29.60;44.50
70244;DHT22;57634;51.136;17.024;2023-09-18T08:20:02;29.20;45.10
70244;DHT22;57634;51.136;17.024;2023-09-18T08:23:13;29.10;45.70
70244;DHT22;57634;51.136;17.024;2023-09-18T08:26:14;29.10;45.80
70244;DHT22;57634;51.136;17.024;2023-09-18T08:29:48;28.80;46.00
70244;DHT22;57634;51.136;17.024;2023-09-18T08:32:49;28.70;46.40
70244;DHT22;57634;51.136;17.024;2023-09-18T08:35:50;28.70;46.40
70244;DHT22;57634;51.136;17.024;2023-09-18T08:38:52;28.60;46.90
70244;DHT22;57634;51.136;17.024;2023-09-18T08:41:58;28.70;47.00
70244;DHT22;57634;51.136;17.024;2023-09-18T08:45:01;28.70;47.00
70244;DHT22;57634;51.136;17.024;2023-09-18T08:48:06;28.70;46.80
70244;DHT22;57634;51.136;17.024;2023-09-18T08:52:26;28.60;46.90
70244;DHT22;57634;51.136;17.024;2023-09-18T08:55:28;28.60;47.50
70244;DHT22;57634;51.136;17.024;2023-09-18T08:58:35;28.80;47.70
70244;DHT22;57634;51.136;17.024;2023-09-18T09:01:42;29.00;46.90
70244;DHT22;57634;51.136;17.024;2023-09-18T09:04:43;29.00;47.00
70244;DHT22;57634;51.136;17.024;2023-09-18T09:07:45;29.00;47.10
70244;DHT22;57634;51.136;17.024;2023-09-18T09:10:46;29.00;47.10
70244;DHT22;57634;51.136;17.024;2023-09-18T09:17:27;29.40;47.00
70244;DHT22;57634;51.136;17.024;2023-09-18T09:20:29;29.60;46.50
70244;DHT22;57634;51.136;17.024;2023-09-18T09:26:42;29.90;46.20
70244;DHT22;57634;51.136;17.024;2023-09-18T09:32:58;30.20;45.20
70244;DHT22;57634;51.136;17.024;2023-09-18T09:36:00;30.20;45.20
70244;DHT22;57634;51.136;17.024;2023-09-18T09:39:05;30.00;45.30
70244;DHT22;57634;51.136;17.024;2023-09-18T09:42:39;30.00;45.50
70244;DHT22;57634;51.136;17.024;2023-09-18T09:45:42;30.10;45.30
70244;DHT22;57634;51.136;17.024;2023-09-18T09:52:01;30.10;44.50
70244;DHT22;57634;51.136;17.024;2023-09-18T09:58:17;29.60;44.90
70244;DHT22;57634;51.136;17.024;2023-09-18T10:01:48;29.50;45.40
70244;DHT22;57634;51.136;17.024;2023-09-18T10:04:51;29.40;45.50
70244;DHT22;57634;51.136;17.024;2023-09-18T10:07:54;29.40;45.60
70244;DHT22;57634;51.136;17.024;2023-09-18T10:11:05;29.30;45.90
70244;DHT22;57634;51.136;17.024;2023-09-18T10:14:19;29.20;45.90
70244;DHT22;57634;51.136;17.024;2023-09-18T10:17:20;29.30;46.00
70244;DHT22;57634;51.136;17.024;2023-09-18T10:20:24;29.50;45.60
70244;DHT22;57634;51.136;17.024;2023-09-18T10:27:05;29.60;44.80
70244;DHT22;57634;51.136;17.024;2023-09-18T10:30:11;29.50;44.70
70244;DHT22;57634;51.136;17.024;2023-09-18T10:33:13;29.50;44.80
70244;DHT22;57634;51.136;17.024;2023-09-18T10:36:16;29.40;44.70
70244;DHT22;57634;51.136;17.024;2023-09-18T10:39:20;29.40;44.60
70244;DHT22;57634;51.136;17.024;2023-09-18T10:42:25;29.60;44.70
70244;DHT22;57634;51.136;17.024;2023-09-18T10:45:27;29.60;44.40
70244;DHT22;57634;51.136;17.024;2023-09-18T10:48:29;29.60;44.40
70244;DHT22;57634;51.136;17.024;2023-09-18T10:51:57;29.70;44.10
70244;DHT22;57634;51.136;17.024;2023-09-18T10:55:02;29.60;44.10
70244;DHT22;57634;51.136;17.024;2023-09-18T10:58:05;29.70;44.10
70244;DHT22;57634;51.136;17.024;2023-09-18T11:01:11;29.80;43.80
70244;DHT22;57634;51.136;17.024;2023-09-18T11:04:17;29.80;43.70
70244;DHT22;57634;51.136;17.024;2023-09-18T11:07:23;29.80;43.60
70244;DHT22;57634;51.136;17.024;2023-09-18T11:10:27;29.80;43.60
70244;DHT22;57634;51.136;17.024;2023-09-18T11:13:29;29.90;43.50
70244;DHT22;57634;51.136;17.024;2023-09-18T11:16:36;30.00;43.30
70244;DHT22;57634;51.136;17.024;2023-09-18T11:20:23;30.10;42.80
70244;DHT22;57634;51.136;17.024;2023-09-18T11:23:33;30.00;42.30
70244;DHT22;57634;51.136;17.024;2023-09-18T11:26:35;29.80;42.30
70244;DHT22;57634;51.136;17.024;2023-09-18T11:29:37;29.70;42.70
70244;DHT22;57634;51.136;17.024;2023-09-18T11:32:39;29.80;42.80
70244;DHT22;57634;51.136;17.024;2023-09-18T11:42:36;29.80;42.00
70244;DHT22;57634;51.136;17.024;2023-09-18T11:45:37;29.70;42.10
70244;DHT22;57634;51.136;17.024;2023-09-18T11:48:41;29.50;42.60
70244;DHT22;57634;51.136;17.024;2023-09-18T11:51:43;29.50;42.60
70244;DHT22;57634;51.136;17.024;2023-09-18T11:54:47;29.40;42.80
70244;DHT22;57634;51.136;17.024;2023-09-18T11:57:52;29.50;42.80
70244;DHT22;57634;51.136;17.024;2023-09-18T12:01:28;29.50;42.70
70244;DHT22;57634;51.136;17.024;2023-09-18T12:04:32;29.50;42.60
70244;DHT22;57634;51.136;17.024;2023-09-18T12:07:36;29.50;42.30
70244;DHT22;57634;51.136;17.024;2023-09-18T12:10:38;29.50;42.30
70244;DHT22;57634;51.136;17.024;2023-09-18T12:13:40;29.40;42.10
70244;DHT22;57634;51.136;17.024;2023-09-18T12:16:43;29.40;41.90
70244;DHT22;57634;51.136;17.024;2023-09-18T12:19:54;29.40;41.90
70244;DHT22;57634;51.136;17.024;2023-09-18T12:22:55;29.50;41.70
70244;DHT22;57634;51.136;17.024;2023-09-18T12:25:59;29.50;41.70
70244;DHT22;57634;51.136;17.024;2023-09-18T12:29:32;29.50;41.60
70244;DHT22;57634;51.136;17.024;2023-09-18T12:32:36;29.50;41.50
70244;DHT22;57634;51.136;17.024;2023-09-18T12:35:40;29.50;41.40
70244;DHT22;57634;51.136;17.024;2023-09-18T12:38:42;29.60;41.20
70244;DHT22;57634;51.136;17.024;2023-09-18T12:41:44;29.60;41.10
70244;DHT22;57634;51.136;17.024;2023-09-18T12:44:48;29.60;41.10
70244;DHT22;57634;51.136;17.024;2023-09-18T12:47:50;29.60;40.90
70244;DHT22;57634;51.136;17.024;2023-09-18T12:50:53;29.60;40.80
70244;DHT22;57634;51.136;17.024;2023-09-18T12:54:03;29.50;40.50
70244;DHT22;57634;51.136;17.024;2023-09-18T12:57:33;29.30;40.50
70244;DHT22;57634;51.136;17.024;2023-09-18T13:00:35;29.30;40.80
70244;DHT22;57634;51.136;17.024;2023-09-18T13:03:43;29.20;40.90
70244;DHT22;57634;51.136;17.024;2023-09-18T13:06:45;29.10;40.80
70244;DHT22;57634;51.136;17.024;2023-09-18T13:13:01;28.90;41.20
70244;DHT22;57634;51.136;17.024;2023-09-18T13:16:06;28.90;41.70
70244;DHT22;57634;51.136;17.024;2023-09-18T13:19:10;28.90;42.10
70244;DHT22;57634;51.136;17.024;2023-09-18T13:22:39;28.80;42.20
70244;DHT22;57634;51.136;17.024;2023-09-18T13:25:41;28.80;42.50
70244;DHT22;57634;51.136;17.024;2023-09-18T13:28:48;28.80;42.70
70244;DHT22;57634;51.136;17.024;2023-09-18T13:31:49;28.90;42.60
70244;DHT22;57634;51.136;17.024;2023-09-18T13:34:51;28.90;42.50
70244;DHT22;57634;51.136;17.024;2023-09-18T13:37:54;28.80;42.40
70244;DHT22;57634;51.136;17.024;2023-09-18T13:40:56;28.80;42.50
70244;DHT22;57634;51.136;17.024;2023-09-18T13:43:58;28.80;42.40
70244;DHT22;57634;51.136;17.024;2023-09-18T13:47:00;28.80;42.60
70244;DHT22;57634;51.136;17.024;2023-09-18T13:50:03;28.70;42.80
70244;DHT22;57634;51.136;17.024;2023-09-18T13:53:05;28.60;42.90
70244;DHT22;57634;51.136;17.024;2023-09-18T13:56:34;28.60;43.00
70244;DHT22;57634;51.136;17.024;2023-09-18T13:59:36;28.50;43.30
70244;DHT22;57634;51.136;17.024;2023-09-18T14:02:39;28.50;43.60
70244;DHT22;57634;51.136;17.024;2023-09-18T14:05:40;28.50;43.70
70244;DHT22;57634;51.136;17.024;2023-09-18T14:08:42;28.50;43.70
70244;DHT22;57634;51.136;17.024;2023-09-18T14:11:44;28.50;43.70
70244;DHT22;57634;51.136;17.024;2023-09-18T14:14:46;28.40;43.70
70244;DHT22;57634;51.136;17.024;2023-09-18T14:17:47;28.40;44.00
70244;DHT22;57634;51.136;17.024;2023-09-18T14:20:50;28.50;44.30
70244;DHT22;57634;51.136;17.024;2023-09-18T14:23:51;28.50;44.30
70244;DHT22;57634;51.136;17.024;2023-09-18T14:26:53;28.40;44.50
70244;DHT22;57634;51.136;17.024;2023-09-18T14:29:56;28.40;44.60
70244;DHT22;57634;51.136;17.024;2023-09-18T14:32:57;28.50;44.80
70244;DHT22;57634;51.136;17.024;2023-09-18T14:36:27;28.50;44.70
70244;DHT22;57634;51.136;17.024;2023-09-18T14:39:31;28.50;44.70
70244;DHT22;57634;51.136;17.024;2023-09-18T14:42:34;28.50;44.80
70244;DHT22;57634;51.136;17.024;2023-09-18T14:45:35;28.50;44.80
70244;DHT22;57634;51.136;17.024;2023-09-18T14:48:40;28.60;44.90
70244;DHT22;57634;51.136;17.024;2023-09-18T14:51:42;28.70;44.60
70244;DHT22;57634;51.136;17.024;2023-09-18T14:54:43;28.70;44.60
70244;DHT22;57634;51.136;17.024;2023-09-18T14:57:44;28.70;44.60
70244;DHT22;57634;51.136;17.024;2023-09-18T15:00:46;28.80;44.40
70244;DHT22;57634;51.136;17.024;2023-09-18T15:03:47;28.70;44.10
70244;DHT22;57634;51.136;17.024;2023-09-18T15:06:52;28.70;43.80
70244;DHT22;57634;51.136;17.024;2023-09-18T15:10:22;28.60;43.70
70244;DHT22;57634;51.136;17.024;2023-09-18T15:13:23;28.60;43.80
70244;DHT22;57634;51.136;17.024;2023-09-18T15:16:25;28.50;43.90
70244;DHT22;57634;51.136;17.024;2023-09-18T15:19:27;28.40;44.00
70244;DHT22;57634;51.136;17.024;2023-09-18T15:22:28;28.30;44.30
70244;DHT22;57634;51.136;17.024;2023-09-18T15:25:29;28.30;44.70
70244;DHT22;57634;51.136;17.024;2023-09-18T15:28:31;28.20;44.90
70244;DHT22;57634;51.136;17.024;2023-09-18T15:31:35;28.10;45.00
70244;DHT22;57634;51.136;17.024;2023-09-18T15:34:36;28.00;45.10
70244;DHT22;57634;51.136;17.024;2023-09-18T15:37:38;27.90;45.30
70244;DHT22;57634;51.136;17.024;2023-09-18T15:40:40;27.80;45.40
70244;DHT22;57634;51.136;17.024;2023-09-18T15:43:41;27.80;45.70
70244;DHT22;57634;51.136;17.024;2023-09-18T15:47:14;27.70;45.80
70244;DHT22;57634;51.136;17.024;2023-09-18T15:50:16;27.60;46.20
70244;DHT22;57634;51.136;17.024;2023-09-18T15:53:17;27.60;46.20
70244;DHT22;57634;51.136;17.024;2023-09-18T15:56:19;27.60;46.30
70244;DHT22;57634;51.136;17.024;2023-09-18T15:59:21;27.50;46.40
70244;DHT22;57634;51.136;17.024;2023-09-18T16:02:26;27.50;46.60
70244;DHT22;57634;51.136;17.024;2023-09-18T16:05:27;27.50;46.80
70244;DHT22;57634;51.136;17.024;2023-09-18T16:08:29;27.40;47.00
70244;DHT22;57634;51.136;17.024;2023-09-18T16:11:31;27.40;47.20
70244;DHT22;57634;51.136;17.024;2023-09-18T16:14:34;27.30;47.30
70244;DHT22;57634;51.136;17.024;2023-09-18T16:17:35;27.30;47.50
70244;DHT22;57634;51.136;17.024;2023-09-18T16:20:37;27.20;47.50
70244;DHT22;57634;51.136;17.024;2023-09-18T16:23:38;27.20;47.70
70244;DHT22;57634;51.136;17.024;2023-09-18T16:27:05;27.10;47.70
70244;DHT22;57634;51.136;17.024;2023-09-18T16:30:07;27.10;48.10
70244;DHT22;57634;51.136;17.024;2023-09-18T16:33:09;27.00;48.20
70244;DHT22;57634;51.136;17.024;2023-09-18T16:36:12;26.90;48.30
70244;DHT22;57634;51.136;17.024;2023-09-18T16:39:13;26.90;48.50
70244;DHT22;57634;51.136;17.024;2023-09-18T16:42:17;26.80;48.60
70244;DHT22;57634;51.136;17.024;2023-09-18T16:45:19;26.80;48.80
70244;DHT22;57634;51.136;17.024;2023-09-18T16:48:20;26.70;48.90
70244;DHT22;57634;51.136;17.024;2023-09-18T16:51:21;26.60;49.10
70244;DHT22;57634;51.136;17.024;2023-09-18T16:54:23;26.50;49.30
70244;DHT22;57634;51.136;17.024;2023-09-18T16:57:25;26.50;49.50
70244;DHT22;57634;51.136;17.024;2023-09-18T17:00:26;26.40;49.60
70244;DHT22;57634;51.136;17.024;2023-09-18T17:03:30;26.40;49.70
70244;DHT22;57634;51.136;17.024;2023-09-18T17:06:57;26.30;49.80
70244;DHT22;57634;51.136;17.024;2023-09-18T17:10:00;26.30;50.10
70244;DHT22;57634;51.136;17.024;2023-09-18T17:13:02;26.30;50.30
70244;DHT22;57634;51.136;17.024;2023-09-18T17:16:06;26.20;50.50
70244;DHT22;57634;51.136;17.024;2023-09-18T17:19:09;26.20;50.70
70244;DHT22;57634;51.136;17.024;2023-09-18T17:22:13;26.10;50.80
70244;DHT22;57634;51.136;17.024;2023-09-18T17:25:16;26.10;51.00
70244;DHT22;57634;51.136;17.024;2023-09-18T17:28:18;26.00;51.20
70244;DHT22;57634;51.136;17.024;2023-09-18T17:31:19;26.00;51.30
70244;DHT22;57634;51.136;17.024;2023-09-18T17:34:21;25.90;51.40
70244;DHT22;57634;51.136;17.024;2023-09-18T17:37:23;25.90;51.60
70244;DHT22;57634;51.136;17.024;2023-09-18T17:40:53;25.90;51.70
70244;DHT22;57634;51.136;17.024;2023-09-18T17:43:55;25.80;52.00
70244;DHT22;57634;51.136;17.024;2023-09-18T17:46:57;25.80;52.20
70244;DHT22;57634;51.136;17.024;2023-09-18T17:49:58;25.70;52.40
70244;DHT22;57634;51.136;17.024;2023-09-18T17:52:59;25.70;52.50
70244;DHT22;57634;51.136;17.024;2023-09-18T17:56:02;25.60;52.70
70244;DHT22;57634;51.136;17.024;2023-09-18T17:59:04;25.50;52.80
70244;DHT22;57634;51.136;17.024;2023-09-18T18:02:09;25.50;53.10
70244;DHT22;57634;51.136;17.024;2023-09-18T18:05:10;25.50;53.30
70244;DHT22;57634;51.136;17.024;2023-09-18T18:08:12;25.40;53.30
70244;DHT22;57634;51.136;17.024;2023-09-18T18:11:14;25.40;53.40
70244;DHT22;57634;51.136;17.024;2023-09-18T18:14:16;25.40;53.60
70244;DHT22;57634;51.136;17.024;2023-09-18T18:17:46;25.30;53.70
70244;DHT22;57634;51.136;17.024;2023-09-18T18:20:49;25.30;54.00
70244;DHT22;57634;51.136;17.024;2023-09-18T18:23:50;25.20;54.10
70244;DHT22;57634;51.136;17.024;2023-09-18T18:26:52;25.20;54.30
70244;DHT22;57634;51.136;17.024;2023-09-18T18:29:54;25.20;54.50
70244;DHT22;57634;51.136;17.024;2023-09-18T18:32:55;25.10;54.50
70244;DHT22;57634;51.136;17.024;2023-09-18T18:35:56;25.10;54.70
70244;DHT22;57634;51.136;17.024;2023-09-18T18:38:58;25.10;54.80
70244;DHT22;57634;51.136;17.024;2023-09-18T18:42:00;25.10;54.90
70244;DHT22;57634;51.136;17.024;2023-09-18T18:45:02;25.00;54.90
70244;DHT22;57634;51.136;17.024;2023-09-18T18:48:05;25.10;55.00
70244;DHT22;57634;51.136;17.024;2023-09-18T18:51:11;25.00;55.00
70244;DHT22;57634;51.136;17.024;2023-09-18T18:54:40;25.00;55.10
70244;DHT22;57634;51.136;17.024;2023-09-18T18:57:43;25.00;55.30
70244;DHT22;57634;51.136;17.024;2023-09-18T19:00:45;25.00;55.50
70244;DHT22;57634;51.136;17.024;2023-09-18T19:03:50;24.90;55.60
70244;DHT22;57634;51.136;17.024;2023-09-18T19:06:51;24.90;55.70
70244;DHT22;57634;51.136;17.024;2023-09-18T19:09:54;24.90;55.90
70244;DHT22;57634;51.136;17.024;2023-09-18T19:12:57;24.90;55.90
70244;DHT22;57634;51.136;17.024;2023-09-18T19:15:59;24.90;56.00
70244;DHT22;57634;51.136;17.024;2023-09-18T19:19:01;24.80;56.10
70244;DHT22;57634;51.136;17.024;2023-09-18T19:22:02;24.80;56.20
70244;DHT22;57634;51.136;17.024;2023-09-18T19:25:05;24.70;56.30
70244;DHT22;57634;51.136;17.024;2023-09-18T19:28:07;24.70;56.50
70244;DHT22;57634;51.136;17.024;2023-09-18T19:31:34;24.70;56.60
70244;DHT22;57634;51.136;17.024;2023-09-18T19:34:36;24.60;57.00
70244;DHT22;57634;51.136;17.024;2023-09-18T19:37:38;24.50;57.10
70244;DHT22;57634;51.136;17.024;2023-09-18T19:40:43;24.50;57.30
70244;DHT22;57634;51.136;17.024;2023-09-18T19:43:45;24.50;57.30